VHWPY YBCS-YBSU
Flight info
| Callsign | VHWPY |
|---|---|
| Flight time | N/A |
| Altitude | 41000 |
| Route | AKROM Y177 RUROX/N0396F190 W727 SUSGI W534 SEBVA |
| Aircraft | CL60/M-SBDE1E2E3FGHIJ4J5J7M3RWXYZ/LB1V1D1 |
Departure
| Time | 2026-04-27 08:51 |
|---|---|
| Airport | Cairns International Airport (YBCS) |
Arrival
| Time | N/A |
|---|---|
| Airport | Sunshine Coast Airport (YBSU) |
| Time | Latitude | Longitude | Altitude | Speed | Heading |
|---|---|---|---|---|---|
| 2026-04-27 07:44 | -16.88097 | 145.74791 | 22 ft | 0 kts | 154° |
| 2026-04-27 08:40 | -16.88101 | 145.74794 | 21 ft | 3 kts | 146° |
| 2026-04-27 08:41 | -16.88102 | 145.74835 | 21 ft | 8 kts | 70° |
| 2026-04-27 08:41 | -16.88089 | 145.74867 | 21 ft | 3 kts | 65° |
| 2026-04-27 08:41 | -16.88066 | 145.74902 | 20 ft | 5 kts | 27° |
| 2026-04-27 08:41 | -16.88024 | 145.74892 | 20 ft | 6 kts | 312° |
| 2026-04-27 08:42 | -16.88015 | 145.74840 | 21 ft | 7 kts | 298° |
| 2026-04-27 08:42 | -16.87952 | 145.74805 | 21 ft | 13 kts | 336° |
| 2026-04-27 08:42 | -16.87885 | 145.74774 | 19 ft | 8 kts | 337° |
| 2026-04-27 08:42 | -16.87832 | 145.74751 | 18 ft | 8 kts | 339° |
| 2026-04-27 08:43 | -16.87787 | 145.74765 | 18 ft | 7 kts | 68° |
| 2026-04-27 08:43 | -16.87784 | 145.74773 | 18 ft | 0 kts | 69° |
| 2026-04-27 08:50 | -16.87762 | 145.74826 | 18 ft | 12 kts | 66° |
| 2026-04-27 08:50 | -16.87777 | 145.74904 | 18 ft | 19 kts | 150° |
| 2026-04-27 08:50 | -16.88204 | 145.75093 | 21 ft | 117 kts | 157° |
| 2026-04-27 08:50 | -16.89123 | 145.75491 | 519 ft | 155 kts | 155° |
| 2026-04-27 08:51 | -16.89869 | 145.76137 | 1147 ft | 140 kts | 113° |
| 2026-04-27 08:51 | -16.89719 | 145.77087 | 1607 ft | 144 kts | 54° |
| 2026-04-27 08:51 | -16.88910 | 145.77785 | 1933 ft | 156 kts | 43° |
| 2026-04-27 08:51 | -16.88033 | 145.78462 | 2189 ft | 164 kts | 43° |
| 2026-04-27 08:52 | -16.87086 | 145.79201 | 2551 ft | 173 kts | 43° |
| 2026-04-27 08:52 | -16.86109 | 145.79959 | 2967 ft | 178 kts | 42° |
| 2026-04-27 08:52 | -16.85123 | 145.80771 | 3417 ft | 178 kts | 53° |
| 2026-04-27 08:52 | -16.84620 | 145.81891 | 3879 ft | 171 kts | 88° |
| 2026-04-27 08:53 | -16.84689 | 145.83153 | 4400 ft | 193 kts | 114° |
| 2026-04-27 08:53 | -16.85657 | 145.84251 | 5220 ft | 231 kts | 147° |
| 2026-04-27 08:53 | -16.87120 | 145.85123 | 6299 ft | 256 kts | 149° |
| 2026-04-27 08:53 | -16.88696 | 145.86041 | 7512 ft | 268 kts | 149° |
| 2026-04-27 08:54 | -16.90313 | 145.86993 | 8783 ft | 276 kts | 150° |
| 2026-04-27 08:54 | -16.91984 | 145.87985 | 10089 ft | 283 kts | 150° |
| 2026-04-27 08:54 | -16.93708 | 145.89020 | 11394 ft | 291 kts | 151° |
| 2026-04-27 08:54 | -16.95432 | 145.90068 | 12687 ft | 298 kts | 151° |
| 2026-04-27 08:55 | -16.97215 | 145.91187 | 14014 ft | 302 kts | 151° |
| 2026-04-27 08:55 | -16.98994 | 145.92310 | 15332 ft | 304 kts | 151° |
| 2026-04-27 08:55 | -17.00798 | 145.93451 | 16598 ft | 306 kts | 151° |
| 2026-04-27 08:55 | -17.02646 | 145.94620 | 17398 ft | 324 kts | 151° |
| 2026-04-27 08:56 | -17.04637 | 145.95879 | 17779 ft | 347 kts | 151° |
| 2026-04-27 08:56 | -17.06709 | 145.97197 | 17924 ft | 346 kts | 151° |
| 2026-04-27 08:56 | -17.08780 | 145.98515 | 17958 ft | 345 kts | 151° |
| 2026-04-27 08:56 | -17.10833 | 145.99823 | 17955 ft | 344 kts | 151° |
| 2026-04-27 08:57 | -17.15049 | 146.02508 | 18808 ft | 366 kts | 151° |
| 2026-04-27 08:57 | -17.17203 | 146.03885 | 20081 ft | 361 kts | 150° |
| 2026-04-27 08:57 | -17.19299 | 146.05225 | 21198 ft | 360 kts | 150° |
| 2026-04-27 08:58 | -17.21442 | 146.06593 | 22200 ft | 361 kts | 150° |
| 2026-04-27 08:58 | -17.23571 | 146.07954 | 23202 ft | 362 kts | 150° |
| 2026-04-27 08:58 | -17.25735 | 146.09338 | 24175 ft | 364 kts | 150° |
| 2026-04-27 08:58 | -17.27939 | 146.10745 | 24629 ft | 380 kts | 151° |
| 2026-04-27 08:59 | -17.30212 | 146.12198 | 25211 ft | 383 kts | 151° |
| 2026-04-27 08:59 | -17.32480 | 146.13650 | 25932 ft | 384 kts | 151° |
| 2026-04-27 08:59 | -17.34781 | 146.15123 | 26668 ft | 386 kts | 151° |
| 2026-04-27 08:59 | -17.37102 | 146.16609 | 27411 ft | 390 kts | 151° |
| 2026-04-27 09:00 | -17.39418 | 146.18094 | 28141 ft | 394 kts | 151° |
| 2026-04-27 09:00 | -17.41779 | 146.19606 | 28875 ft | 398 kts | 151° |
| 2026-04-27 09:00 | -17.44164 | 146.21135 | 29588 ft | 401 kts | 151° |
| 2026-04-27 09:00 | -17.46508 | 146.22638 | 30314 ft | 401 kts | 152° |
| 2026-04-27 09:01 | -17.48895 | 146.24170 | 31041 ft | 402 kts | 152° |
| 2026-04-27 09:01 | -17.51275 | 146.25697 | 31780 ft | 401 kts | 153° |
| 2026-04-27 09:01 | -17.53673 | 146.27237 | 32488 ft | 401 kts | 153° |
| 2026-04-27 09:01 | -17.56036 | 146.28755 | 33146 ft | 400 kts | 154° |
| 2026-04-27 09:02 | -17.58384 | 146.30264 | 33834 ft | 400 kts | 154° |
| 2026-04-27 09:02 | -17.60781 | 146.31804 | 34395 ft | 404 kts | 154° |
| 2026-04-27 09:02 | -17.63209 | 146.33359 | 34430 ft | 421 kts | 154° |
| 2026-04-27 09:02 | -17.65777 | 146.35004 | 34469 ft | 437 kts | 153° |
| 2026-04-27 09:03 | -17.68384 | 146.36678 | 34639 ft | 448 kts | 153° |
| 2026-04-27 09:03 | -17.71094 | 146.38420 | 34930 ft | 455 kts | 153° |
| 2026-04-27 09:03 | -17.73796 | 146.40161 | 35356 ft | 458 kts | 153° |
| 2026-04-27 09:03 | -17.76503 | 146.41905 | 35814 ft | 460 kts | 153° |
| 2026-04-27 09:04 | -17.79218 | 146.43655 | 36318 ft | 460 kts | 154° |
| 2026-04-27 09:04 | -17.81979 | 146.45436 | 36782 ft | 461 kts | 154° |
| 2026-04-27 09:04 | -17.84705 | 146.47194 | 37163 ft | 463 kts | 154° |
| 2026-04-27 09:04 | -17.87453 | 146.48967 | 37513 ft | 466 kts | 154° |
| 2026-04-27 09:05 | -17.90238 | 146.50763 | 37823 ft | 469 kts | 154° |
| 2026-04-27 09:05 | -17.93003 | 146.52548 | 38177 ft | 470 kts | 155° |
| 2026-04-27 09:05 | -17.95807 | 146.54359 | 38543 ft | 472 kts | 155° |
| 2026-04-27 09:05 | -17.98612 | 146.56171 | 38931 ft | 473 kts | 155° |
| 2026-04-27 09:06 | -18.01398 | 146.57973 | 39481 ft | 470 kts | 155° |
| 2026-04-27 09:06 | -18.04159 | 146.59760 | 39967 ft | 469 kts | 155° |
| 2026-04-27 09:06 | -18.06947 | 146.61565 | 40484 ft | 466 kts | 155° |
| 2026-04-27 09:06 | -18.09690 | 146.63341 | 40951 ft | 464 kts | 155° |
| 2026-04-27 09:07 | -18.12489 | 146.65149 | 40972 ft | 471 kts | 155° |
| 2026-04-27 09:07 | -18.18189 | 146.68835 | 40975 ft | 482 kts | 154° |
| 2026-04-27 09:08 | -18.23953 | 146.72568 | 40963 ft | 492 kts | 154° |
| 2026-04-27 09:08 | -18.29836 | 146.76381 | 40971 ft | 501 kts | 154° |
| 2026-04-27 09:09 | -18.35802 | 146.80234 | 40966 ft | 506 kts | 155° |
| 2026-04-27 09:09 | -18.41963 | 146.83870 | 40968 ft | 507 kts | 156° |
| 2026-04-27 09:10 | -18.48137 | 146.87486 | 40973 ft | 507 kts | 156° |
| 2026-04-27 09:10 | -18.54323 | 146.91115 | 40969 ft | 507 kts | 156° |
| 2026-04-27 09:11 | -18.60472 | 146.94727 | 40971 ft | 505 kts | 156° |
| 2026-04-27 09:11 | -18.66589 | 146.98322 | 40971 ft | 504 kts | 156° |
| 2026-04-27 09:12 | -18.72728 | 147.01933 | 40970 ft | 503 kts | 156° |
| 2026-04-27 09:12 | -18.78845 | 147.05536 | 40970 ft | 503 kts | 156° |
| 2026-04-27 09:13 | -18.84945 | 147.09132 | 40967 ft | 503 kts | 156° |
| 2026-04-27 09:13 | -18.91075 | 147.12749 | 40969 ft | 503 kts | 156° |
| 2026-04-27 09:14 | -18.97189 | 147.16359 | 40972 ft | 502 kts | 156° |
| 2026-04-27 09:14 | -19.03249 | 147.19940 | 40976 ft | 501 kts | 156° |
| 2026-04-27 09:15 | -19.09359 | 147.23555 | 40984 ft | 500 kts | 156° |
| 2026-04-27 09:15 | -19.15441 | 147.27156 | 40984 ft | 500 kts | 156° |
| 2026-04-27 09:16 | -19.21490 | 147.30740 | 40992 ft | 499 kts | 156° |
| 2026-04-27 09:16 | -19.27551 | 147.34335 | 40987 ft | 498 kts | 155° |
| 2026-04-27 09:17 | -19.33595 | 147.37923 | 41006 ft | 498 kts | 155° |
| 2026-04-27 09:17 | -19.39641 | 147.41516 | 40985 ft | 496 kts | 156° |
| 2026-04-27 09:18 | -19.45658 | 147.45094 | 40978 ft | 495 kts | 155° |
| 2026-04-27 09:18 | -19.51668 | 147.48671 | 40989 ft | 494 kts | 155° |
| 2026-04-27 09:19 | -19.57639 | 147.52228 | 41000 ft | 493 kts | 155° |
| 2026-04-27 09:19 | -19.63625 | 147.55795 | 40994 ft | 493 kts | 155° |
| 2026-04-27 09:20 | -19.69598 | 147.59360 | 41006 ft | 492 kts | 155° |
| 2026-04-27 09:20 | -19.75581 | 147.62930 | 41002 ft | 490 kts | 155° |
| 2026-04-27 09:21 | -19.81536 | 147.66487 | 41008 ft | 489 kts | 155° |
| 2026-04-27 09:21 | -19.87451 | 147.70021 | 41008 ft | 489 kts | 154° |
| 2026-04-27 09:22 | -19.93386 | 147.73573 | 40999 ft | 487 kts | 154° |
| 2026-04-27 09:22 | -19.99275 | 147.77100 | 41010 ft | 486 kts | 154° |
| 2026-04-27 09:23 | -20.05150 | 147.80620 | 41009 ft | 485 kts | 154° |
| 2026-04-27 09:23 | -20.11035 | 147.84149 | 41009 ft | 484 kts | 154° |
| 2026-04-27 09:24 | -20.16947 | 147.87698 | 41013 ft | 484 kts | 154° |
| 2026-04-27 09:24 | -20.22808 | 147.91220 | 41014 ft | 484 kts | 155° |
| 2026-04-27 09:25 | -20.28695 | 147.94760 | 41019 ft | 485 kts | 154° |
| 2026-04-27 09:25 | -20.34555 | 147.98286 | 41025 ft | 486 kts | 155° |
| 2026-04-27 09:26 | -20.40470 | 148.01851 | 41039 ft | 486 kts | 154° |
| 2026-04-27 09:26 | -20.46331 | 148.05385 | 41039 ft | 485 kts | 155° |
| 2026-04-27 09:27 | -20.52219 | 148.08939 | 41044 ft | 485 kts | 155° |
| 2026-04-27 09:27 | -20.58071 | 148.12473 | 41048 ft | 484 kts | 155° |
| 2026-04-27 09:28 | -20.63955 | 148.16029 | 41043 ft | 485 kts | 155° |
| 2026-04-27 09:28 | -20.69853 | 148.19598 | 41051 ft | 485 kts | 155° |
| 2026-04-27 09:29 | -20.75718 | 148.23151 | 41051 ft | 485 kts | 155° |
| 2026-04-27 09:29 | -20.81588 | 148.26709 | 41061 ft | 485 kts | 155° |
| 2026-04-27 09:30 | -20.87454 | 148.30269 | 41059 ft | 485 kts | 155° |
| 2026-04-27 09:30 | -20.93335 | 148.33839 | 41068 ft | 485 kts | 155° |
| 2026-04-27 09:31 | -20.99222 | 148.37418 | 41078 ft | 485 kts | 155° |
| 2026-04-27 09:31 | -21.05125 | 148.41010 | 41073 ft | 485 kts | 155° |
| 2026-04-27 09:32 | -21.10985 | 148.44577 | 41077 ft | 485 kts | 155° |
| 2026-04-27 09:32 | -21.16873 | 148.48166 | 41077 ft | 485 kts | 155° |
| 2026-04-27 09:33 | -21.22758 | 148.51756 | 41077 ft | 485 kts | 155° |